createdAt,value
2022-12-01T00:00:59.166Z,10.55
2022-12-01T00:03:29.457Z,11.20
2022-12-01T00:06:03.243Z,11.40
2022-12-01T00:08:33.791Z,11.52
2022-12-01T00:11:04.459Z,10.40
2022-12-01T00:13:34.812Z,10.63
2022-12-01T00:16:15.721Z,11.40
2022-12-01T00:18:46.024Z,12.73
2022-12-01T00:21:17.380Z,11.45
2022-12-01T00:23:47.642Z,11.45
2022-12-01T00:26:17.959Z,11.27
2022-12-01T00:28:51.678Z,11.37
2022-12-01T00:31:24.902Z,11.48
2022-12-01T00:33:55.301Z,12.10
2022-12-01T00:36:25.786Z,10.15
2022-12-01T00:38:56.433Z,10.90
2022-12-01T00:41:27.451Z,10.87
2022-12-01T00:43:57.703Z,11.32
2022-12-01T00:46:31.630Z,11.77
2022-12-01T00:49:01.976Z,11.88
2022-12-01T00:51:32.187Z,9.93
2022-12-01T00:54:02.453Z,10.93
2022-12-01T00:56:32.692Z,11.13
2022-12-01T00:59:03.215Z,11.68
2022-12-01T01:01:36.774Z,11.17
2022-12-01T01:04:07.298Z,11.57
2022-12-01T01:06:37.569Z,11.10
2022-12-01T01:09:07.907Z,12.70
2022-12-01T01:11:38.197Z,11.68
2022-12-01T01:14:08.913Z,11.65
2022-12-01T01:16:41.916Z,11.27
2022-12-01T01:19:12.581Z,11.52
2022-12-01T01:21:42.858Z,11.90
2022-12-01T01:24:13.144Z,11.15
2022-12-01T01:26:43.403Z,12.15
2022-12-01T01:29:13.754Z,12.17
2022-12-01T01:31:46.571Z,11.88
2022-12-01T01:34:16.862Z,11.10
2022-12-01T01:36:47.069Z,10.98
2022-12-01T01:39:17.525Z,12.07
2022-12-01T01:41:47.859Z,11.88
2022-12-01T01:44:51.174Z,12.40
2022-12-01T01:47:25.845Z,12.48
2022-12-01T01:49:56.771Z,11.88
2022-12-01T01:52:27.117Z,11.95
2022-12-01T01:54:58.929Z,10.70
2022-12-01T01:57:30.763Z,11.82
2022-12-01T02:00:05.009Z,11.43
2022-12-01T02:02:46.889Z,10.75
2022-12-01T02:05:20.264Z,11.63
2022-12-01T02:07:51.097Z,11.02
2022-12-01T02:10:25.270Z,12.10
2022-12-01T02:13:07.189Z,11.50
2022-12-01T02:15:41.249Z,11.85
2022-12-01T02:18:25.510Z,12.45
2022-12-01T02:21:23.007Z,11.00
2022-12-01T02:24:39.842Z,13.50
2022-12-01T02:27:28.406Z,11.05
2022-12-01T02:30:10.676Z,12.10
2022-12-01T02:32:53.790Z,12.82
2022-12-01T02:35:27.675Z,12.38
2022-12-01T02:38:03.839Z,11.88
2022-12-01T02:40:35.995Z,10.23
2022-12-01T02:43:08.101Z,12.20
2022-12-01T02:45:41.569Z,12.85
2022-12-01T02:48:18.913Z,12.23
2022-12-01T02:50:49.908Z,11.88
2022-12-01T02:53:22.305Z,12.43
2022-12-01T02:55:53.527Z,10.70
2022-12-01T02:58:24.729Z,11.85
2022-12-01T03:01:02.758Z,12.48
2022-12-01T03:03:48.946Z,12.18
2022-12-01T03:06:26.966Z,12.82
2022-12-01T03:09:06.576Z,12.95
2022-12-01T03:11:46.096Z,13.07
2022-12-01T03:14:25.675Z,12.07
2022-12-01T03:16:57.270Z,12.43
2022-12-01T03:19:38.002Z,12.55
2022-12-01T03:22:13.806Z,11.88
2022-12-01T03:24:47.996Z,11.85
2022-12-01T03:27:22.441Z,12.25
2022-12-01T03:32:29.226Z,11.00
2022-12-01T03:35:05.876Z,9.48
2022-12-01T03:37:42.627Z,11.00
2022-12-01T03:40:18.019Z,12.63
2022-12-01T03:42:52.494Z,13.38
2022-12-01T03:45:27.027Z,11.18
2022-12-01T03:47:57.452Z,12.20
2022-12-01T03:50:38.596Z,11.35
2022-12-01T03:53:13.888Z,11.15
2022-12-01T03:55:46.661Z,11.52
2022-12-01T03:58:21.321Z,11.50
2022-12-01T04:00:55.461Z,12.57
2022-12-01T04:03:28.581Z,10.98
2022-12-01T04:06:01.690Z,10.63
2022-12-01T04:08:33.715Z,12.40
2022-12-01T04:11:27.130Z,12.35
2022-12-01T04:13:56.991Z,11.18
2022-12-01T04:16:27.413Z,12.30
2022-12-01T04:18:57.765Z,11.68
2022-12-01T04:21:30.328Z,13.13
2022-12-01T04:24:03.670Z,12.48
2022-12-01T04:26:35.378Z,10.98
2022-12-01T04:29:07.576Z,11.48
2022-12-01T04:31:38.086Z,11.07
2022-12-01T04:34:08.621Z,11.25
2022-12-01T04:36:41.290Z,11.73
2022-12-01T04:39:11.517Z,12.13
2022-12-01T04:41:41.769Z,11.55
2022-12-01T04:44:12.757Z,13.23
2022-12-01T04:46:43.079Z,10.82
2022-12-01T04:49:13.527Z,11.32
2022-12-01T04:51:46.123Z,11.77
2022-12-01T04:54:16.690Z,12.15
2022-12-01T04:56:47.133Z,12.05
2022-12-01T04:59:17.430Z,11.50
2022-12-01T05:01:48.425Z,11.05
2022-12-01T05:04:19.093Z,12.35
2022-12-01T05:06:51.791Z,11.77
2022-12-01T05:09:22.315Z,11.77
2022-12-01T05:11:52.597Z,11.52
2022-12-01T05:14:22.831Z,12.35
2022-12-01T05:16:54.421Z,12.25
2022-12-01T05:19:37.279Z,12.75
2022-12-01T05:22:09.890Z,11.95
2022-12-01T05:24:40.122Z,11.32
2022-12-01T05:27:10.458Z,13.00
2022-12-01T05:29:40.647Z,11.55
2022-12-01T05:32:10.850Z,13.95
2022-12-01T05:34:41.073Z,12.05
2022-12-01T05:37:13.664Z,11.70
2022-12-01T05:39:43.935Z,11.52
2022-12-01T05:42:14.317Z,12.80
2022-12-01T05:44:44.726Z,13.30
2022-12-01T05:47:14.962Z,12.33
2022-12-01T05:49:45.193Z,12.27
2022-12-01T05:52:17.914Z,13.05
2022-12-01T05:54:48.193Z,12.10
2022-12-01T05:57:18.426Z,12.10
2022-12-01T05:59:48.997Z,12.30
2022-12-01T06:02:19.476Z,11.40
2022-12-01T06:04:49.737Z,11.57
2022-12-01T06:07:23.587Z,12.00
2022-12-01T06:09:54.006Z,11.05
2022-12-01T06:12:24.238Z,12.60
2022-12-01T06:14:54.420Z,11.48
2022-12-01T06:17:24.642Z,10.77
2022-12-01T06:19:54.861Z,10.98
2022-12-01T06:22:27.459Z,11.73
2022-12-01T06:24:57.681Z,13.30
2022-12-01T06:27:28.016Z,10.80
2022-12-01T06:29:58.236Z,11.30
2022-12-01T06:32:28.492Z,12.40
2022-12-01T06:34:58.699Z,12.60
2022-12-01T06:37:31.275Z,11.75
2022-12-01T06:40:01.457Z,11.13
2022-12-01T06:42:33.211Z,10.35
2022-12-01T06:45:03.607Z,11.82
2022-12-01T06:47:33.957Z,10.65
2022-12-01T06:50:04.545Z,10.63
2022-12-01T06:52:37.159Z,10.95
2022-12-01T06:55:07.547Z,11.48
2022-12-01T06:57:38.424Z,10.75
2022-12-01T07:00:11.263Z,11.40
2022-12-01T07:02:41.865Z,11.05
2022-12-01T07:05:12.368Z,11.63
2022-12-01T07:07:44.982Z,10.80
2022-12-01T07:10:16.480Z,11.35
2022-12-01T07:12:46.684Z,11.15
2022-12-01T07:15:17.142Z,11.67
2022-12-01T07:17:47.440Z,11.55
2022-12-01T07:20:17.754Z,13.40
2022-12-01T07:22:50.295Z,11.13
2022-12-01T07:25:20.507Z,11.60
2022-12-01T07:27:50.753Z,11.70
2022-12-01T07:30:25.393Z,12.07
2022-12-01T07:32:58.407Z,12.27
2022-12-01T07:35:28.415Z,11.82
2022-12-01T07:38:01.059Z,11.32
2022-12-01T07:40:31.279Z,10.57
2022-12-01T07:43:01.517Z,10.40
2022-12-01T07:45:31.923Z,11.80
2022-12-01T07:48:02.133Z,12.18
2022-12-01T07:50:32.423Z,10.63
2022-12-01T07:53:05.016Z,11.07
2022-12-01T07:55:35.222Z,11.05
2022-12-01T07:58:05.455Z,12.10
2022-12-01T08:00:35.661Z,11.27
2022-12-01T08:03:05.909Z,10.57
2022-12-01T08:05:36.268Z,11.45
2022-12-01T08:08:08.989Z,12.18
2022-12-01T08:10:39.488Z,11.57
2022-12-01T08:13:12.917Z,10.65
2022-12-01T08:15:47.061Z,13.18
2022-12-01T08:18:17.403Z,12.13
2022-12-01T08:20:47.600Z,11.65
2022-12-01T08:23:20.254Z,14.15
2022-12-01T08:25:52.440Z,14.63
2022-12-01T08:28:22.816Z,11.73
2022-12-01T08:30:53.259Z,13.18
2022-12-01T08:33:23.603Z,12.48
2022-12-01T08:35:53.853Z,11.15
2022-12-01T08:38:26.404Z,11.43
2022-12-01T08:40:57.154Z,10.45
2022-12-01T08:43:55.880Z,11.00
2022-12-01T08:46:17.992Z,11.68
2022-12-01T08:48:48.306Z,11.05
2022-12-01T08:51:20.388Z,10.87
2022-12-01T08:53:53.586Z,10.13
2022-12-01T08:56:27.316Z,10.67
2022-12-01T08:58:58.124Z,10.50
2022-12-01T09:01:28.677Z,11.40
2022-12-01T09:04:08.800Z,10.43
2022-12-01T09:06:43.479Z,10.77
2022-12-01T09:11:47.157Z,9.85
2022-12-01T09:14:18.396Z,10.68
2022-12-01T09:16:50.422Z,11.68
2022-12-01T09:19:25.027Z,11.25
2022-12-01T09:21:55.654Z,11.32
2022-12-01T09:24:28.597Z,12.35
2022-12-01T09:26:59.700Z,10.83
2022-12-01T09:29:29.961Z,11.93
2022-12-01T09:32:00.512Z,12.52
2022-12-01T09:34:30.959Z,11.13
2022-12-01T09:37:01.357Z,11.40
2022-12-01T09:39:34.076Z,11.48
2022-12-01T09:42:09.404Z,11.70
2022-12-01T09:44:45.417Z,12.35
2022-12-01T09:47:20.720Z,10.68
2022-12-01T09:49:58.965Z,10.50
2022-12-01T09:52:31.587Z,11.57
2022-12-01T09:55:04.841Z,10.40
2022-12-01T09:57:36.910Z,12.25
2022-12-01T10:00:10.549Z,11.70
2022-12-01T10:02:47.101Z,11.63
2022-12-01T10:05:21.544Z,11.15
2022-12-01T10:10:31.042Z,11.45
2022-12-01T10:13:01.315Z,11.82
2022-12-01T10:15:35.762Z,10.77
2022-12-01T10:20:40.217Z,10.68
2022-12-01T10:23:17.016Z,10.93
2022-12-01T10:25:58.539Z,11.73
2022-12-01T10:28:44.055Z,11.80
2022-12-01T10:31:21.286Z,10.50
2022-12-01T10:33:58.004Z,10.40
2022-12-01T10:36:28.756Z,11.80
2022-12-01T10:38:58.922Z,10.65
2022-12-01T10:41:33.981Z,11.23
2022-12-01T10:44:06.972Z,11.88
2022-12-01T10:46:44.728Z,9.73
2022-12-01T10:49:16.896Z,10.45
2022-12-01T10:51:53.142Z,10.98
2022-12-01T10:54:25.550Z,9.32
2022-12-01T10:56:59.477Z,10.65
2022-12-01T10:59:31.337Z,10.35
2022-12-01T11:02:02.662Z,10.18
2022-12-01T11:04:47.687Z,10.13
2022-12-01T11:07:24.895Z,9.40
2022-12-01T11:10:09.568Z,9.50
2022-12-01T11:12:42.828Z,10.68
2022-12-01T11:15:21.506Z,10.68
2022-12-01T11:17:52.117Z,8.90
2022-12-01T11:20:31.207Z,9.65
2022-12-01T11:23:25.112Z,9.15
2022-12-01T11:26:10.040Z,10.65
2022-12-01T11:28:45.667Z,8.50
2022-12-01T11:31:16.121Z,9.18
2022-12-01T11:33:52.269Z,10.07
2022-12-01T11:36:27.957Z,9.10
2022-12-01T11:39:01.126Z,8.50
2022-12-01T11:41:36.522Z,8.68
2022-12-01T11:44:49.482Z,8.48
2022-12-01T11:47:25.115Z,9.38
2022-12-01T11:49:59.330Z,8.85
2022-12-01T11:52:31.960Z,8.82
2022-12-01T11:55:09.948Z,8.73
2022-12-01T11:57:43.743Z,7.68
2022-12-01T12:00:20.844Z,8.37
2022-12-01T12:02:56.669Z,7.43
2022-12-01T12:06:32.344Z,8.20
2022-12-01T12:09:07.004Z,7.90
2022-12-01T12:11:43.514Z,8.63
2022-12-01T12:14:32.944Z,8.23
2022-12-01T12:17:21.335Z,7.57
2022-12-01T12:20:08.164Z,7.38
2022-12-01T12:22:53.710Z,7.97
2022-12-01T12:25:35.134Z,7.97
2022-12-01T12:28:15.656Z,8.02
2022-12-01T12:30:50.131Z,8.30
2022-12-01T12:33:37.217Z,8.20
2022-12-01T12:36:09.750Z,8.88
2022-12-01T12:38:52.499Z,7.72
2022-12-01T12:41:29.582Z,7.25
2022-12-01T12:44:06.425Z,9.20
2022-12-01T12:46:42.052Z,8.85
2022-12-01T12:49:32.542Z,9.05
2022-12-01T12:52:08.918Z,8.18
2022-12-01T12:54:43.095Z,8.65
2022-12-01T12:57:22.219Z,8.93
2022-12-01T12:59:58.901Z,7.97
2022-12-01T13:02:35.741Z,8.32
2022-12-01T13:05:15.333Z,9.32
2022-12-01T13:07:49.225Z,9.13
2022-12-01T13:10:25.580Z,8.73
2022-12-01T13:12:58.789Z,8.02
2022-12-01T13:15:29.725Z,7.53
2022-12-01T13:18:05.357Z,7.63
2022-12-01T13:20:39.028Z,8.35
2022-12-01T13:23:10.033Z,7.72
2022-12-01T13:25:42.626Z,7.63
2022-12-01T13:28:17.579Z,6.68
2022-12-01T13:31:04.414Z,7.97
2022-12-01T13:33:35.905Z,7.45
2022-12-01T13:36:45.142Z,6.82
2022-12-01T13:39:03.935Z,6.65
2022-12-01T13:41:37.951Z,7.07
2022-12-01T13:44:11.748Z,6.78
2022-12-01T13:46:55.235Z,7.20
2022-12-01T13:49:36.952Z,7.15
2022-12-01T13:52:31.468Z,6.80
2022-12-01T13:55:19.635Z,7.00
2022-12-01T13:57:52.642Z,6.07
2022-12-01T14:00:28.677Z,6.35
2022-12-01T14:03:14.051Z,5.47
2022-12-01T14:05:48.640Z,5.28
2022-12-01T14:08:24.859Z,6.50
2022-12-01T14:10:57.574Z,6.38
2022-12-01T14:13:28.476Z,6.63
2022-12-01T14:15:59.881Z,5.45
2022-12-01T14:18:35.772Z,5.75
2022-12-01T14:21:07.704Z,6.07
2022-12-01T14:23:43.442Z,6.00
2022-12-01T14:26:18.507Z,5.50
2022-12-01T14:29:03.916Z,5.15
2022-12-01T14:32:16.016Z,6.53
2022-12-01T14:34:46.845Z,5.30
2022-12-01T14:37:19.936Z,5.65
2022-12-01T14:40:01.635Z,4.68
2022-12-01T14:42:47.477Z,5.25
2022-12-01T14:45:21.958Z,5.72
2022-12-01T14:48:00.307Z,5.30
2022-12-01T14:50:34.874Z,6.05
2022-12-01T14:53:09.525Z,6.65
2022-12-01T14:55:45.194Z,5.80
2022-12-01T14:58:18.611Z,5.90
2022-12-01T15:00:57.631Z,6.15
2022-12-01T15:03:31.993Z,5.00
2022-12-01T15:06:05.508Z,6.45
2022-12-01T15:08:43.575Z,6.32
2022-12-01T15:11:25.624Z,6.40
2022-12-01T15:13:56.742Z,5.60
2022-12-01T15:16:27.815Z,6.10
2022-12-01T15:18:58.100Z,5.57
2022-12-01T15:21:29.600Z,5.70
2022-12-01T15:24:01.966Z,6.22
2022-12-01T15:26:35.747Z,5.80
2022-12-01T15:29:23.868Z,5.57
2022-12-01T15:31:55.341Z,6.03
2022-12-01T15:34:27.739Z,6.38
2022-12-01T15:36:58.345Z,6.78
2022-12-01T15:39:32.480Z,6.45
2022-12-01T15:42:05.806Z,5.90
2022-12-01T15:44:37.403Z,5.65
2022-12-01T15:47:22.508Z,7.57
2022-12-01T15:49:52.937Z,6.43
2022-12-01T15:52:24.557Z,6.75
2022-12-01T15:54:55.213Z,7.32
2022-12-01T15:57:28.149Z,6.70
2022-12-01T16:00:00.289Z,7.20
2022-12-01T16:02:32.647Z,6.47
2022-12-01T16:05:07.712Z,6.13
2022-12-01T16:08:11.607Z,5.90
2022-12-01T16:10:31.425Z,6.13
2022-12-01T16:13:31.504Z,6.05
2022-12-01T16:16:04.490Z,8.95
2022-12-01T16:18:36.415Z,7.22
2022-12-01T16:21:08.109Z,7.40
2022-12-01T16:23:38.161Z,7.45
2022-12-01T16:26:11.575Z,6.65
2022-12-01T16:28:42.304Z,8.07
2022-12-01T16:31:21.858Z,6.30
2022-12-01T16:34:18.609Z,5.90
2022-12-01T16:36:54.343Z,7.00
2022-12-01T16:39:24.616Z,5.85
2022-12-01T16:41:54.644Z,7.45
2022-12-01T16:44:29.103Z,6.30
2022-12-01T16:47:03.076Z,6.18
2022-12-01T16:49:33.270Z,7.80
2022-12-01T16:52:22.163Z,7.93
2022-12-01T16:54:53.536Z,7.28
2022-12-01T16:57:23.670Z,6.85
2022-12-01T16:59:53.682Z,5.97
2022-12-01T17:02:26.382Z,7.18
2022-12-01T17:04:56.542Z,7.05
2022-12-01T17:07:26.899Z,14.15
2022-12-01T17:09:56.912Z,10.95
2022-12-01T17:12:27.010Z,7.82
2022-12-01T17:14:57.109Z,7.35
2022-12-01T17:17:30.685Z,7.60
2022-12-01T17:20:00.871Z,7.03
2022-12-01T17:22:31.082Z,8.23
2022-12-01T17:25:02.380Z,9.93
2022-12-01T17:27:33.497Z,7.88
2022-12-01T17:30:05.071Z,8.57
2022-12-01T17:32:37.718Z,10.23
2022-12-01T17:35:08.773Z,12.75
2022-12-01T17:37:39.709Z,12.73
2022-12-01T17:40:13.827Z,10.70
2022-12-01T17:42:48.757Z,13.18
2022-12-01T17:45:21.444Z,7.93
2022-12-01T17:47:54.081Z,9.52
2022-12-01T17:50:24.489Z,10.13
2022-12-01T17:52:54.778Z,8.90
2022-12-01T17:55:25.169Z,8.95
2022-12-01T17:57:55.493Z,11.93
2022-12-01T18:00:26.217Z,9.77
2022-12-01T18:02:58.920Z,8.50
2022-12-01T18:05:29.591Z,7.88
2022-12-01T18:08:00.139Z,8.00
2022-12-01T18:10:30.362Z,8.68
2022-12-01T18:13:00.456Z,8.23
2022-12-01T18:15:34.702Z,7.72
2022-12-01T18:20:37.689Z,7.50
2022-12-01T18:23:08.060Z,7.20
2022-12-01T18:25:38.292Z,7.13
2022-12-01T18:28:11.201Z,7.75
2022-12-01T18:30:41.849Z,7.30
2022-12-01T18:33:14.671Z,6.97
2022-12-01T18:35:46.337Z,6.32
2022-12-01T18:38:16.376Z,9.50
2022-12-01T18:40:46.655Z,7.40
2022-12-01T18:43:16.613Z,12.38
2022-12-01T18:45:46.723Z,9.90
2022-12-01T18:48:19.480Z,10.70
2022-12-01T18:50:51.011Z,8.65
2022-12-01T18:53:23.891Z,8.68
2022-12-01T18:55:54.287Z,7.75
2022-12-01T18:58:24.656Z,7.10
2022-12-01T19:00:54.884Z,6.60
2022-12-01T19:03:27.791Z,7.03
2022-12-01T19:05:58.146Z,6.78
2022-12-01T19:08:28.254Z,7.93
2022-12-01T19:11:02.233Z,7.75
2022-12-01T19:13:33.279Z,8.75
2022-12-01T19:16:08.769Z,8.85
2022-12-01T19:18:42.264Z,7.78
2022-12-01T19:21:14.185Z,6.93
2022-12-01T19:23:45.248Z,6.88
2022-12-01T19:26:17.791Z,6.55
2022-12-01T19:28:48.182Z,8.13
2022-12-01T19:31:22.710Z,7.20
2022-12-01T19:33:56.799Z,7.45
2022-12-01T19:36:30.389Z,7.53
2022-12-01T19:39:04.377Z,8.13
2022-12-01T19:41:36.241Z,6.55
2022-12-01T19:44:08.501Z,6.90
2022-12-01T19:46:38.767Z,7.28
2022-12-01T19:49:13.206Z,7.45
2022-12-01T19:51:43.284Z,7.05
2022-12-01T19:54:17.134Z,6.63
2022-12-01T19:56:47.476Z,7.15
2022-12-01T19:59:17.840Z,7.78
2022-12-01T20:01:48.245Z,7.32
2022-12-01T20:04:21.054Z,6.75
2022-12-01T20:06:51.328Z,6.35
2022-12-01T20:09:21.417Z,7.82
2022-12-01T20:11:51.466Z,7.45
2022-12-01T20:14:21.781Z,6.20
2022-12-01T20:16:52.149Z,6.93
2022-12-01T20:19:24.920Z,7.95
2022-12-01T20:21:54.920Z,7.57
2022-12-01T20:24:25.464Z,7.20
2022-12-01T20:26:57.579Z,6.88
2022-12-01T20:29:29.980Z,7.40
2022-12-01T20:32:03.050Z,7.65
2022-12-01T20:34:38.541Z,7.72
2022-12-01T20:37:08.939Z,6.78
2022-12-01T20:39:41.430Z,7.53
2022-12-01T20:42:11.959Z,7.18
2022-12-01T20:44:42.510Z,6.85
2022-12-01T20:47:12.706Z,6.60
2022-12-01T20:49:45.433Z,7.38
2022-12-01T20:52:15.470Z,7.05
2022-12-01T20:54:45.635Z,6.95
2022-12-01T20:57:15.648Z,6.97
2022-12-01T20:59:45.824Z,7.63
2022-12-01T21:02:15.910Z,7.13
2022-12-01T21:04:48.841Z,7.10
2022-12-01T21:07:19.289Z,7.30
2022-12-01T21:09:49.438Z,7.15
2022-12-01T21:12:33.148Z,7.78
2022-12-01T21:15:10.825Z,6.80
2022-12-01T21:17:43.845Z,6.60
2022-12-01T21:20:22.056Z,8.02
2022-12-01T21:22:53.576Z,7.13
2022-12-01T21:25:25.684Z,7.70
2022-12-01T21:27:59.508Z,6.93
2022-12-01T21:30:30.038Z,7.72
2022-12-01T21:33:18.592Z,7.18
2022-12-01T21:35:54.190Z,8.63
2022-12-01T21:38:24.472Z,8.13
2022-12-01T21:40:54.764Z,7.40
2022-12-01T21:43:25.817Z,7.63
2022-12-01T21:46:00.671Z,7.72
2022-12-01T21:48:37.815Z,8.73
2022-12-01T21:51:18.163Z,7.10
2022-12-01T21:53:48.610Z,9.15
2022-12-01T21:56:23.945Z,6.93
2022-12-01T21:58:55.398Z,8.60
2022-12-01T22:01:30.693Z,7.40
2022-12-01T22:04:03.012Z,7.50
2022-12-01T22:06:40.319Z,8.32
2022-12-01T22:09:19.282Z,8.60
2022-12-01T22:11:53.641Z,8.77
2022-12-01T22:16:58.303Z,6.50
2022-12-01T22:19:30.424Z,7.13
2022-12-01T22:22:07.237Z,7.63
2022-12-01T22:24:40.963Z,7.95
2022-12-01T22:27:30.411Z,7.78
2022-12-01T22:30:02.026Z,8.25
2022-12-01T22:32:43.485Z,8.90
2022-12-01T22:35:31.529Z,7.82
2022-12-01T22:38:24.221Z,8.65
2022-12-01T22:40:59.190Z,7.55
2022-12-01T22:43:40.170Z,8.75
2022-12-01T22:46:15.179Z,7.85
2022-12-01T22:48:47.218Z,9.23
2022-12-01T22:51:25.502Z,8.10
2022-12-01T22:54:01.122Z,7.95
2022-12-01T22:56:33.493Z,9.18
2022-12-01T22:59:03.983Z,9.00
2022-12-01T23:01:35.853Z,8.98
2022-12-01T23:04:18.195Z,9.77
2022-12-01T23:07:01.590Z,9.15
2022-12-01T23:09:36.674Z,8.90
2022-12-01T23:12:28.792Z,9.70
2022-12-01T23:15:00.044Z,8.85
2022-12-01T23:17:31.483Z,10.23
2022-12-01T23:20:13.958Z,10.52
2022-12-01T23:22:44.228Z,11.07
2022-12-01T23:25:18.972Z,10.05
2022-12-01T23:27:50.218Z,10.98
2022-12-01T23:30:21.361Z,11.45
2022-12-01T23:32:55.036Z,10.32
2022-12-01T23:35:25.386Z,11.13
2022-12-01T23:37:56.927Z,10.73
2022-12-01T23:40:34.660Z,10.45
2022-12-01T23:43:13.455Z,11.00
2022-12-01T23:45:43.875Z,11.52
2022-12-01T23:48:17.498Z,10.60
2022-12-01T23:50:48.091Z,10.27
2022-12-01T23:53:29.008Z,11.52
2022-12-01T23:56:09.974Z,11.63
2022-12-01T23:58:40.307Z,11.43
